Forside
METAR-TAF:

METAR-TAF

Lufthavne :

Detroit, Michigan, USA

Breddekreds: 42-14-12N, længdekreds: 083-31-34W, højde: 218 m

Aktuelle vejr

Denne rapport blev lavet for 27 minutter siden, kl. 15:53 UTC
Vind 13 kt fra sydsydvest
Temperatur 6°C
Fugtighed 49%
Tryk 1017 hPa
Sigt: 16.1 km
skyfri

METAR: KYIP 231553Z 21013KT 10SM CLR 06/M04 A3002 RMK AO2 SLP169 T00611044

Tid: 11:20 (16:20 UTC)

Vejrudsigter

Denne rapport blev lavet for 5 timer og 0 minutter siden, kl. 11:20 UTC
Foreløbig gælder fra 23 på 12 UTC til 24 på 12 UTC
Vind 12 kt fra sydsydvest
Sigt: 10 km
Spredte skyer i en højde af 25000 ft
Fra 23 på 1800 UTC
Vind 13 kt fra sydsydvest med vindstød på up til 22 kt
Sigt: 10 km
Spredte skyer i en højde af 5000 ft
Spredte skyer i en højde af 25000 ft
Fra 24 på 0000 UTC
Vind 11 kt fra sydsydvest
Sigt: 10 km
skyfri

TAF: KYIP 231120Z 2312/2412 21012KT P6SM SCT250 FM231800 21013G22KT P6SM SCT050 SCT250 FM240000 21011KT P6SM SKC

Vejrobservationer og prognoser fra mere end 4000 lufthavne (METAR og TAF).

De gule og røde prikker repræsenterer de meteorologiske stationer.

Flyt musen over at se navnet på stationen.

Så klik over at se vejr observationer og prognoser.

At skifte det kort: Klik på de grønne knapper med et sort kors for at zoome ind; på den grønne knap med en bindestreg for at zoome ud; eller på de grønne pile for tilstødende kort.


METAR-TAF: